Time;durP1;ratioP1;P1;durP2;ratioP2;P2;SDS_P1;SDS_P2;PMS_P1;PMS_P2;Temp;Humidity;BMP_temperature;BMP_pressure;BME280_temperature;BME280_humidity;BME280_pressure;Samples;Min_cycle;Max_cycle;Signal;HPM_P1;HPM_P2
2023/09/11 00:01:49;;;;;;;36.10;25.08;;;;;;;;;;4993851;28;20038;-68
2023/09/11 00:04:14;;;;;;;39.80;25.90;;;;;;;;;;4995208;28;20046;-68
2023/09/11 00:06:40;;;;;;;39.13;26.50;;;;;;;;;;4994716;28;20030;-67
2023/09/11 00:09:05;;;;;;;42.08;27.00;;;;;;;;;;5009207;28;20030;-68
2023/09/11 00:11:30;;;;;;;39.15;27.10;;;;;;;;;;4994670;28;20028;-68
2023/09/11 00:13:56;;;;;;;43.95;27.42;;;;;;;;;;4995526;28;20018;-68
2023/09/11 00:16:21;;;;;;;41.35;27.40;;;;;;;;;;5007204;28;20060;-68
2023/09/11 00:18:46;;;;;;;39.60;27.02;;;;;;;;;;5009441;28;20026;-67
2023/09/11 00:21:12;;;;;;;40.47;27.02;;;;;;;;;;4994550;28;20439;-68
2023/09/11 00:23:37;;;;;;;43.38;28.08;;;;;;;;;;4993819;28;20375;-68
2023/09/11 00:26:02;;;;;;;46.65;28.65;;;;;;;;;;4994277;28;20052;-67
2023/09/11 00:28:27;;;;;;;42.22;28.25;;;;;;;;;;4994199;28;20045;-67
2023/09/11 00:30:57;;;;;;;35.85;24.00;;;;;;;;;;5004963;28;20466;-67
2023/09/11 00:33:22;;;;;;;33.88;22.95;;;;;;;;;;5000226;28;20026;-67
2023/09/11 00:35:48;;;;;;;35.35;22.70;;;;;;;;;;4993900;28;20646;-67
2023/09/11 00:38:13;;;;;;;36.08;23.88;;;;;;;;;;4992653;28;20033;-67
2023/09/11 00:40:38;;;;;;;38.47;24.63;;;;;;;;;;4994034;28;20026;-67
2023/09/11 00:43:03;;;;;;;39.90;26.10;;;;;;;;;;4995544;28;20034;-67
2023/09/11 00:45:29;;;;;;;38.25;24.38;;;;;;;;;;4991914;28;20034;-67
2023/09/11 00:47:54;;;;;;;40.08;26.35;;;;;;;;;;4993989;28;20018;-67
2023/09/11 00:50:20;;;;;;;41.67;27.40;;;;;;;;;;4993342;28;20027;-67
2023/09/11 00:52:46;;;;;;;43.22;27.52;;;;;;;;;;4993376;28;20085;-67
2023/09/11 00:55:11;;;;;;;44.75;29.35;;;;;;;;;;4993247;28;20076;-67
2023/09/11 00:57:37;;;;;;;51.42;30.48;;;;;;;;;;4993399;28;20038;-67
2023/09/11 01:03:05;;;;;;;47.83;30.65;;;;;;;;;;4994590;28;20133;-67
2023/09/11 01:05:30;;;;;;;50.80;31.17;;;;;;;;;;5005314;28;20109;-64
2023/09/11 01:07:58;;;;;;;123.05;50.30;;;;;;;;;;4994056;28;20022;-63
2023/09/11 01:10:23;;;;;;;90.90;43.30;;;;;;;;;;4993560;28;20033;-62
2023/09/11 01:12:49;;;;;;;83.50;40.47;;;;;;;;;;5000447;28;20022;-63
2023/09/11 01:15:14;;;;;;;54.28;29.85;;;;;;;;;;5012534;28;20377;-63
2023/09/11 01:17:46;;;;;;;47.33;28.95;;;;;;;;;;5011466;28;20550;-63
2023/09/11 01:20:23;;;;;;;43.88;27.50;;;;;;;;;;4994344;28;20101;-63
2023/09/11 01:22:48;;;;;;;46.08;29.48;;;;;;;;;;4998795;28;20038;-64
2023/09/11 01:25:14;;;;;;;46.47;28.83;;;;;;;;;;5010664;28;20018;-63
2023/09/11 01:27:54;;;;;;;48.05;28.17;;;;;;;;;;5004284;28;20033;-62
2023/09/11 01:30:21;;;;;;;48.70;29.92;;;;;;;;;;5001077;28;20028;-63
2023/09/11 01:32:47;;;;;;;55.80;32.88;;;;;;;;;;5000847;28;20030;-64
2023/09/11 01:35:12;;;;;;;56.22;34.25;;;;;;;;;;4997786;28;20028;-63
2023/09/11 01:37:38;;;;;;;60.88;35.35;;;;;;;;;;5009141;28;20148;-63
2023/09/11 01:40:04;;;;;;;60.65;34.90;;;;;;;;;;4995277;28;20053;-63
2023/09/11 01:42:40;;;;;;;60.42;35.17;;;;;;;;;;4996977;28;20112;-63
2023/09/11 01:45:06;;;;;;;51.75;32.33;;;;;;;;;;4993089;28;20026;-62
2023/09/11 01:47:32;;;;;;;50.20;30.58;;;;;;;;;;4995712;28;20025;-63
2023/09/11 01:49:58;;;;;;;42.97;27.48;;;;;;;;;;5005547;28;20018;-63
2023/09/11 01:52:24;;;;;;;48.90;28.65;;;;;;;;;;4994021;28;20026;-62
2023/09/11 01:54:49;;;;;;;41.47;26.98;;;;;;;;;;4993981;28;20553;-62
2023/09/11 01:57:15;;;;;;;50.90;27.10;;;;;;;;;;4993395;28;20430;-62
2023/09/11 01:59:40;;;;;;;54.00;32.35;;;;;;;;;;4993286;28;20038;-63
2023/09/11 02:02:06;;;;;;;63.75;35.75;;;;;;;;;;4993607;28;20081;-62
2023/09/11 02:04:31;;;;;;;68.63;39.47;;;;;;;;;;4993246;28;20045;-62
2023/09/11 02:06:56;;;;;;;77.50;40.95;;;;;;;;;;4993309;28;20033;-62
2023/09/11 02:09:22;;;;;;;84.38;44.38;;;;;;;;;;4992921;28;20069;-62
2023/09/11 02:11:47;;;;;;;87.85;44.20;;;;;;;;;;4993441;28;20022;-63
2023/09/11 02:14:12;;;;;;;78.97;43.55;;;;;;;;;;4993424;28;20037;-62
2023/09/11 02:16:37;;;;;;;78.75;43.50;;;;;;;;;;4993749;28;20098;-62
2023/09/11 02:19:03;;;;;;;82.95;45.70;;;;;;;;;;4993779;28;20026;-62
2023/09/11 02:21:28;;;;;;;78.45;43.70;;;;;;;;;;4994753;28;20034;-62
2023/09/11 02:23:53;;;;;;;78.95;42.55;;;;;;;;;;5002214;28;20499;-62
2023/09/11 02:26:18;;;;;;;58.50;35.35;;;;;;;;;;4993611;28;20386;-62
2023/09/11 02:28:44;;;;;;;58.60;36.70;;;;;;;;;;4993312;28;20364;-62
2023/09/11 02:31:09;;;;;;;64.18;36.28;;;;;;;;;;4996891;28;20367;-62
2023/09/11 02:33:34;;;;;;;59.67;36.00;;;;;;;;;;4996936;28;20125;-62
2023/09/11 02:35:59;;;;;;;72.00;38.88;;;;;;;;;;4997069;28;20034;-62
2023/09/11 02:38:25;;;;;;;69.60;38.22;;;;;;;;;;4996960;28;20057;-62
2023/09/11 02:40:50;;;;;;;71.45;40.20;;;;;;;;;;4996169;28;20105;-62
2023/09/11 02:43:16;;;;;;;68.45;38.63;;;;;;;;;;4996447;28;20023;-62
2023/09/11 02:45:42;;;;;;;73.78;42.38;;;;;;;;;;4996786;28;20033;-62
2023/09/11 02:48:07;;;;;;;72.65;40.40;;;;;;;;;;4996860;28;20085;-62
2023/09/11 02:50:33;;;;;;;86.20;45.63;;;;;;;;;;4996814;28;20478;-63
2023/09/11 02:52:58;;;;;;;84.03;45.40;;;;;;;;;;4995775;28;20026;-62
2023/09/11 02:55:23;;;;;;;85.28;45.80;;;;;;;;;;4996576;28;20030;-62
2023/09/11 02:57:48;;;;;;;76.78;43.38;;;;;;;;;;4996402;28;20037;-62
2023/09/11 03:00:14;;;;;;;74.68;42.00;;;;;;;;;;4996315;28;20157;-62
2023/09/11 03:02:39;;;;;;;74.25;41.92;;;;;;;;;;4995948;28;20030;-63
2023/09/11 03:05:05;;;;;;;72.53;41.75;;;;;;;;;;4996086;28;20046;-62
2023/09/11 03:07:30;;;;;;;67.57;40.45;;;;;;;;;;4996741;28;20093;-62
2023/09/11 03:09:55;;;;;;;66.72;40.35;;;;;;;;;;4997027;28;20018;-62
2023/09/11 03:12:21;;;;;;;59.65;37.88;;;;;;;;;;4996042;28;20386;-62
2023/09/11 03:14:49;;;;;;;60.15;36.10;;;;;;;;;;4997424;28;20085;-62
2023/09/11 03:17:15;;;;;;;64.35;37.22;;;;;;;;;;4996673;28;20061;-62
2023/09/11 03:19:40;;;;;;;55.40;36.25;;;;;;;;;;4996434;28;20478;-63
2023/09/11 03:22:05;;;;;;;59.63;36.03;;;;;;;;;;4996278;28;20493;-62
2023/09/11 03:24:31;;;;;;;56.63;35.75;;;;;;;;;;4995992;28;20438;-62
2023/09/11 03:26:56;;;;;;;54.30;35.15;;;;;;;;;;4996531;28;20027;-67
2023/09/11 03:29:21;;;;;;;55.65;35.88;;;;;;;;;;4996031;28;20018;-67
2023/09/11 03:31:46;;;;;;;53.40;34.92;;;;;;;;;;4996047;28;20030;-67
2023/09/11 03:34:12;;;;;;;53.63;34.13;;;;;;;;;;4995739;28;20014;-67
2023/09/11 03:36:37;;;;;;;57.78;35.47;;;;;;;;;;4996711;28;20374;-67
2023/09/11 03:39:02;;;;;;;52.97;35.03;;;;;;;;;;4996373;28;20019;-67
2023/09/11 03:41:28;;;;;;;55.17;34.70;;;;;;;;;;4995301;28;20026;-67
2023/09/11 03:43:53;;;;;;;58.15;34.97;;;;;;;;;;4995763;28;20051;-66
2023/09/11 03:46:19;;;;;;;56.00;35.15;;;;;;;;;;4996699;28;20077;-66
2023/09/11 03:48:44;;;;;;;49.90;33.30;;;;;;;;;;4995697;28;20050;-66
2023/09/11 03:51:10;;;;;;;46.35;30.40;;;;;;;;;;4995986;28;20050;-67
2023/09/11 03:53:42;;;;;;;46.63;30.65;;;;;;;;;;4995353;28;20447;-67
2023/09/11 03:56:07;;;;;;;48.50;29.40;;;;;;;;;;4995609;28;20022;-67
2023/09/11 03:58:32;;;;;;;49.17;30.73;;;;;;;;;;4995260;28;20105;-66
2023/09/11 04:00:58;;;;;;;50.75;32.30;;;;;;;;;;4994771;28;20022;-67
2023/09/11 04:03:23;;;;;;;51.15;33.50;;;;;;;;;;4994965;28;20050;-67
2023/09/11 04:05:48;;;;;;;61.45;37.22;;;;;;;;;;4995293;28;20022;-68
2023/09/11 04:08:13;;;;;;;69.05;40.58;;;;;;;;;;4995262;28;20015;-67
2023/09/11 04:10:39;;;;;;;65.20;39.30;;;;;;;;;;4995566;28;20054;-67
2023/09/11 04:13:04;;;;;;;70.35;39.95;;;;;;;;;;4995440;28;20478;-67
2023/09/11 04:15:29;;;;;;;69.10;41.60;;;;;;;;;;4994664;28;20359;-67
2023/09/11 04:17:56;;;;;;;69.68;41.45;;;;;;;;;;4996716;28;20031;-67
2023/09/11 04:20:21;;;;;;;62.78;39.13;;;;;;;;;;4995173;28;20066;-67
2023/09/11 04:22:46;;;;;;;64.95;40.38;;;;;;;;;;4995356;28;20053;-67
2023/09/11 04:25:12;;;;;;;68.82;40.08;;;;;;;;;;4995074;28;20034;-67
2023/09/11 04:27:37;;;;;;;69.82;44.22;;;;;;;;;;4993899;28;20026;-67
2023/09/11 04:30:02;;;;;;;61.03;38.63;;;;;;;;;;4996493;28;20018;-67
2023/09/11 04:32:28;;;;;;;59.30;36.35;;;;;;;;;;4994337;28;20030;-67
2023/09/11 04:34:53;;;;;;;55.30;37.30;;;;;;;;;;4994104;28;20043;-66
2023/09/11 04:37:18;;;;;;;51.85;35.00;;;;;;;;;;4994629;28;20023;-67
2023/09/11 04:39:44;;;;;;;51.92;33.25;;;;;;;;;;4994079;28;20026;-67
2023/09/11 04:42:09;;;;;;;53.42;34.83;;;;;;;;;;4994933;28;20022;-67
2023/09/11 04:44:34;;;;;;;51.47;33.80;;;;;;;;;;4994190;28;20498;-67
2023/09/11 04:47:00;;;;;;;52.30;33.88;;;;;;;;;;4994527;28;20444;-67
2023/09/11 04:49:25;;;;;;;49.28;33.08;;;;;;;;;;4994845;28;20422;-67
2023/09/11 04:51:50;;;;;;;50.03;33.95;;;;;;;;;;4993841;28;20454;-67
2023/09/11 04:54:15;;;;;;;48.90;33.10;;;;;;;;;;4993856;28;20360;-67
2023/09/11 04:56:41;;;;;;;48.13;33.03;;;;;;;;;;4990926;28;20023;-67
2023/09/11 04:59:06;;;;;;;48.60;33.05;;;;;;;;;;4994417;28;20018;-67
2023/09/11 05:01:31;;;;;;;48.42;32.30;;;;;;;;;;4993301;28;20530;-67
2023/09/11 05:03:56;;;;;;;42.88;29.60;;;;;;;;;;4993942;28;20133;-67
2023/09/11 05:06:22;;;;;;;41.17;28.48;;;;;;;;;;4992067;28;20498;-66
2023/09/11 05:08:47;;;;;;;44.38;28.80;;;;;;;;;;5008920;28;20033;-67
2023/09/11 05:11:12;;;;;;;41.50;28.92;;;;;;;;;;5014062;28;20081;-67
2023/09/11 05:13:37;;;;;;;43.47;30.55;;;;;;;;;;5010735;28;20456;-67
2023/09/11 05:16:03;;;;;;;45.38;30.08;;;;;;;;;;4994141;28;20026;-67
2023/09/11 05:18:28;;;;;;;44.90;31.05;;;;;;;;;;4994136;28;20109;-67
2023/09/11 05:20:53;;;;;;;44.75;30.13;;;;;;;;;;4993985;28;20109;-66
2023/09/11 05:23:18;;;;;;;44.70;30.17;;;;;;;;;;4994224;28;20053;-67
2023/09/11 05:25:44;;;;;;;42.47;29.45;;;;;;;;;;4993775;28;20018;-66
2023/09/11 05:28:09;;;;;;;45.97;29.73;;;;;;;;;;4993990;28;20037;-66
2023/09/11 05:30:35;;;;;;;44.42;27.98;;;;;;;;;;4993603;28;20037;-66
2023/09/11 05:33:00;;;;;;;44.95;29.85;;;;;;;;;;4996305;28;20110;-67
2023/09/11 05:35:25;;;;;;;38.08;27.38;;;;;;;;;;4994168;28;20037;-66
2023/09/11 05:37:50;;;;;;;45.63;30.10;;;;;;;;;;4994168;28;20447;-67
2023/09/11 05:40:16;;;;;;;45.58;28.77;;;;;;;;;;4995917;28;20390;-66
2023/09/11 05:42:41;;;;;;;44.47;30.35;;;;;;;;;;4993865;28;20154;-66
2023/09/11 05:45:06;;;;;;;44.30;28.30;;;;;;;;;;4993487;28;20026;-62
2023/09/11 05:47:32;;;;;;;42.10;27.83;;;;;;;;;;4996792;28;20027;-66
2023/09/11 05:50:01;;;;;;;33.20;24.35;;;;;;;;;;5002160;28;20476;-66
2023/09/11 05:52:29;;;;;;;31.33;22.75;;;;;;;;;;4993705;28;20030;-65
2023/09/11 05:54:54;;;;;;;27.73;20.13;;;;;;;;;;4993823;28;20057;-65
2023/09/11 05:57:20;;;;;;;29.75;18.20;;;;;;;;;;4993718;28;20463;-65
2023/09/11 05:59:46;;;;;;;26.85;17.35;;;;;;;;;;4993622;28;20036;-65
2023/09/11 06:02:11;;;;;;;22.27;16.13;;;;;;;;;;4993722;28;20490;-65
2023/09/11 06:04:36;;;;;;;25.02;16.45;;;;;;;;;;4994143;28;20054;-65
2023/09/11 06:07:03;;;;;;;22.85;15.90;;;;;;;;;;4997655;28;20024;-65
2023/09/11 06:09:28;;;;;;;20.88;15.13;;;;;;;;;;4997633;28;20474;-65
2023/09/11 06:11:53;;;;;;;18.77;14.75;;;;;;;;;;4997538;28;20025;-65
2023/09/11 06:14:19;;;;;;;22.33;15.20;;;;;;;;;;4997468;28;20109;-65
2023/09/11 06:16:44;;;;;;;19.58;13.88;;;;;;;;;;4997662;28;20026;-65
2023/09/11 06:19:09;;;;;;;18.48;13.43;;;;;;;;;;4997185;28;20022;-65
2023/09/11 06:21:35;;;;;;;18.98;13.02;;;;;;;;;;4998940;28;20026;-65
2023/09/11 06:24:00;;;;;;;17.67;13.07;;;;;;;;;;4997544;28;20383;-65
2023/09/11 06:26:25;;;;;;;14.95;12.13;;;;;;;;;;4997235;28;20021;-66
2023/09/11 06:28:50;;;;;;;19.27;12.55;;;;;;;;;;4997060;28;20014;-66
2023/09/11 06:31:16;;;;;;;19.42;11.90;;;;;;;;;;4999861;28;20014;-66
2023/09/11 06:33:43;;;;;;;15.57;11.27;;;;;;;;;;4997045;28;20427;-66
2023/09/11 06:36:08;;;;;;;15.05;12.00;;;;;;;;;;4997465;28;20018;-66
2023/09/11 06:38:34;;;;;;;17.17;12.63;;;;;;;;;;4997355;28;20109;-66
2023/09/11 06:40:59;;;;;;;15.00;11.75;;;;;;;;;;4997136;28;20716;-67
2023/09/11 06:43:25;;;;;;;15.45;11.73;;;;;;;;;;4996926;28;20026;-66
2023/09/11 06:45:53;;;;;;;17.92;11.38;;;;;;;;;;4995966;28;20022;-66
2023/09/11 06:48:19;;;;;;;18.83;12.82;;;;;;;;;;4997307;28;20022;-67
2023/09/11 06:50:44;;;;;;;16.75;11.45;;;;;;;;;;4995384;28;20025;-67
2023/09/11 06:53:09;;;;;;;17.45;11.32;;;;;;;;;;4997151;28;20069;-67
2023/09/11 06:55:35;;;;;;;17.42;12.13;;;;;;;;;;4996829;28;20427;-67
2023/09/11 06:58:00;;;;;;;17.40;11.02;;;;;;;;;;4994190;28;20050;-67
2023/09/11 07:00:25;;;;;;;20.08;11.48;;;;;;;;;;4996348;28;20061;-67
2023/09/11 07:02:51;;;;;;;17.70;11.88;;;;;;;;;;4996572;28;20073;-68
2023/09/11 07:05:17;;;;;;;14.02;11.27;;;;;;;;;;4996493;28;20042;-68
2023/09/11 07:07:42;;;;;;;16.92;11.00;;;;;;;;;;4996506;28;20098;-68
2023/09/11 07:10:15;;;;;;;13.98;10.52;;;;;;;;;;5003011;28;20022;-68
2023/09/11 07:12:40;;;;;;;17.58;11.48;;;;;;;;;;4996286;28;20041;-68
2023/09/11 07:15:06;;;;;;;17.88;10.27;;;;;;;;;;4995090;28;20113;-68
2023/09/11 07:17:31;;;;;;;17.10;10.10;;;;;;;;;;4995233;28;20026;-69
2023/09/11 07:19:58;;;;;;;15.32;10.20;;;;;;;;;;4995894;28;20050;-68
2023/09/11 07:22:23;;;;;;;14.23;9.85;;;;;;;;;;4996444;28;20044;-69
2023/09/11 07:24:48;;;;;;;14.52;9.02;;;;;;;;;;4996161;28;20386;-68
2023/09/11 07:27:14;;;;;;;14.35;9.05;;;;;;;;;;4996122;28;20014;-68
2023/09/11 07:29:40;;;;;;;16.48;8.75;;;;;;;;;;4995759;28;20109;-67
2023/09/11 07:32:05;;;;;;;18.17;9.32;;;;;;;;;;4996121;28;20097;-68
2023/09/11 07:34:30;;;;;;;21.00;8.85;;;;;;;;;;4996096;28;20045;-67
2023/09/11 07:36:56;;;;;;;13.55;8.73;;;;;;;;;;4998654;28;20061;-67
2023/09/11 07:39:21;;;;;;;14.02;9.18;;;;;;;;;;4996245;28;20399;-68
2023/09/11 07:41:47;;;;;;;11.82;8.13;;;;;;;;;;4997983;28;20402;-67
2023/09/11 07:44:13;;;;;;;14.73;7.90;;;;;;;;;;4996486;28;20038;-68
2023/09/11 07:46:38;;;;;;;11.85;7.55;;;;;;;;;;4995664;28;20030;-67
2023/09/11 07:49:03;;;;;;;11.95;7.35;;;;;;;;;;4996082;28;20102;-68
2023/09/11 07:51:29;;;;;;;15.00;6.90;;;;;;;;;;4995762;28;20414;-68
2023/09/11 07:53:54;;;;;;;13.55;6.70;;;;;;;;;;5005348;28;20386;-68
2023/09/11 07:56:19;;;;;;;15.93;6.68;;;;;;;;;;5000246;28;20092;-68
2023/09/11 07:58:45;;;;;;;19.80;6.43;;;;;;;;;;4995647;28;20033;-67
2023/09/11 08:01:10;;;;;;;12.75;6.38;;;;;;;;;;4995582;28;20022;-68
2023/09/11 08:03:36;;;;;;;15.65;6.43;;;;;;;;;;4995268;28;20393;-67
2023/09/11 08:06:01;;;;;;;14.30;6.18;;;;;;;;;;4995630;28;20491;-61
2023/09/11 08:08:27;;;;;;;14.27;6.90;;;;;;;;;;4995701;28;20026;-61
2023/09/11 08:10:52;;;;;;;16.08;6.47;;;;;;;;;;4995643;28;20050;-61
2023/09/11 08:13:17;;;;;;;12.60;5.90;;;;;;;;;;4995602;28;20019;-61
2023/09/11 08:15:42;;;;;;;12.35;5.88;;;;;;;;;;4995177;28;20418;-62
2023/09/11 08:18:08;;;;;;;11.38;6.15;;;;;;;;;;4995508;28;20050;-61
2023/09/11 08:20:33;;;;;;;15.48;6.18;;;;;;;;;;4995473;28;20050;-61
2023/09/11 08:22:58;;;;;;;18.58;6.35;;;;;;;;;;4997557;28;20390;-61
2023/09/11 08:25:24;;;;;;;14.48;5.70;;;;;;;;;;4994910;28;20018;-62
2023/09/11 08:27:49;;;;;;;16.38;5.75;;;;;;;;;;4994646;28;20038;-61
2023/09/11 08:30:14;;;;;;;16.45;6.13;;;;;;;;;;4999648;28;20010;-61
2023/09/11 08:32:40;;;;;;;13.55;5.47;;;;;;;;;;4994872;28;20030;-61
2023/09/11 08:35:05;;;;;;;12.43;5.20;;;;;;;;;;4995008;28;20026;-61
2023/09/11 08:37:31;;;;;;;17.00;5.32;;;;;;;;;;4994893;28;20481;-61
2023/09/11 08:39:56;;;;;;;11.35;5.25;;;;;;;;;;4994798;28;20022;-62
2023/09/11 08:42:24;;;;;;;15.45;5.60;;;;;;;;;;4994709;28;20026;-61
2023/09/11 08:44:49;;;;;;;11.05;4.60;;;;;;;;;;4994362;28;20030;-62
2023/09/11 08:47:15;;;;;;;10.38;4.90;;;;;;;;;;4994604;28;20018;-62
2023/09/11 08:49:44;;;;;;;17.65;5.68;;;;;;;;;;4994613;28;20096;-63
2023/09/11 08:52:12;;;;;;;15.23;5.60;;;;;;;;;;4994636;28;20022;-62
2023/09/11 08:54:40;;;;;;;13.57;5.38;;;;;;;;;;4991807;28;20072;-63
2023/09/11 08:57:06;;;;;;;16.35;5.20;;;;;;;;;;4975138;28;20023;-61
2023/09/11 08:59:34;;;;;;;13.32;4.55;;;;;;;;;;4975237;28;20407;-62
2023/09/11 09:01:59;;;;;;;16.77;5.22;;;;;;;;;;4993537;28;20014;-62
2023/09/11 09:04:25;;;;;;;13.98;5.15;;;;;;;;;;4992188;28;20372;-62
2023/09/11 09:06:50;;;;;;;13.93;4.80;;;;;;;;;;4994019;28;20025;-62
2023/09/11 09:09:17;;;;;;;11.85;4.90;;;;;;;;;;4994632;28;20022;-61
2023/09/11 09:11:48;;;;;;;19.17;5.00;;;;;;;;;;4994231;28;20023;-61
2023/09/11 09:14:15;;;;;;;13.27;5.00;;;;;;;;;;4994616;28;20022;-61
2023/09/11 09:16:40;;;;;;;12.73;5.20;;;;;;;;;;4993820;28;20034;-68
2023/09/11 09:19:05;;;;;;;12.37;5.10;;;;;;;;;;4994423;28;20101;-69
2023/09/11 09:21:30;;;;;;;14.27;4.72;;;;;;;;;;4993986;28;20348;-68
2023/09/11 09:24:07;;;;;;;15.70;4.77;;;;;;;;;;4993318;28;20037;-68
2023/09/11 09:26:32;;;;;;;15.13;5.00;;;;;;;;;;4993942;28;20772;-67
2023/09/11 09:29:07;;;;;;;13.10;4.77;;;;;;;;;;4994258;28;20011;-68
2023/09/11 09:31:33;;;;;;;17.15;4.90;;;;;;;;;;4995084;28;20340;-68
2023/09/11 09:33:58;;;;;;;13.68;4.72;;;;;;;;;;4993031;28;20050;-68
2023/09/11 09:36:23;;;;;;;13.80;4.80;;;;;;;;;;4993775;28;20482;-67
2023/09/11 09:38:49;;;;;;;14.93;4.65;;;;;;;;;;4993472;28;20333;-67
2023/09/11 09:41:16;;;;;;;14.60;4.68;;;;;;;;;;4993445;28;20045;-68
2023/09/11 09:43:50;;;;;;;15.68;4.50;;;;;;;;;;4993453;28;20026;-67
2023/09/11 09:46:19;;;;;;;9.48;4.30;;;;;;;;;;4993601;28;20027;-67
2023/09/11 09:48:45;;;;;;;13.52;4.82;;;;;;;;;;4994211;28;20482;-67
2023/09/11 09:51:10;;;;;;;18.10;4.32;;;;;;;;;;4986603;28;20061;-67
2023/09/11 09:53:41;;;;;;;14.53;4.50;;;;;;;;;;4995730;28;20356;-68
2023/09/11 09:56:09;;;;;;;12.95;4.28;;;;;;;;;;4993958;28;20281;-68
2023/09/11 09:58:36;;;;;;;12.60;4.90;;;;;;;;;;4993736;28;20022;-68
2023/09/11 10:01:03;;;;;;;16.17;4.38;;;;;;;;;;4993320;28;20036;-68
2023/09/11 10:03:37;;;;;;;12.95;4.43;;;;;;;;;;4993499;28;20053;-68
2023/09/11 10:06:05;;;;;;;13.48;4.50;;;;;;;;;;4993571;28;20022;-68
2023/09/11 10:08:31;;;;;;;10.30;4.40;;;;;;;;;;4993478;28;20037;-68
2023/09/11 10:10:56;;;;;;;14.33;4.80;;;;;;;;;;4993163;28;20022;-68
2023/09/11 10:13:21;;;;;;;17.00;5.27;;;;;;;;;;4992931;28;20261;-68
2023/09/11 10:15:47;;;;;;;15.45;4.45;;;;;;;;;;4992957;28;20300;-69
2023/09/11 10:18:12;;;;;;;13.38;4.20;;;;;;;;;;4993783;28;20022;-70
2023/09/11 10:20:37;;;;;;;14.55;4.45;;;;;;;;;;4993843;28;20033;-70
2023/09/11 10:23:04;;;;;;;16.23;4.28;;;;;;;;;;5012260;28;20367;-69
2023/09/11 10:25:32;;;;;;;13.98;4.22;;;;;;;;;;5013169;28;20462;-69
2023/09/11 10:28:00;;;;;;;16.45;4.57;;;;;;;;;;5012435;28;20022;-69
2023/09/11 10:30:31;;;;;;;13.68;4.20;;;;;;;;;;4995832;28;20574;-69
2023/09/11 10:32:59;;;;;;;17.83;4.57;;;;;;;;;;4993662;28;20130;-70
2023/09/11 10:35:26;;;;;;;16.48;4.68;;;;;;;;;;4993619;28;20470;-69
2023/09/11 10:37:56;;;;;;;11.50;5.03;;;;;;;;;;4993226;28;20041;-69
2023/09/11 10:40:21;;;;;;;14.85;4.95;;;;;;;;;;4993024;28;20033;-69
2023/09/11 10:42:47;;;;;;;15.65;5.65;;;;;;;;;;4992681;28;20023;-69
2023/09/11 10:45:25;;;;;;;13.45;4.95;;;;;;;;;;4993177;28;20019;-69
2023/09/11 10:47:50;;;;;;;12.20;4.65;;;;;;;;;;4974046;28;20061;-68
2023/09/11 10:50:16;;;;;;;13.98;4.60;;;;;;;;;;4977001;28;20093;-69
2023/09/11 10:52:41;;;;;;;11.98;4.80;;;;;;;;;;4996772;28;20467;-70
2023/09/11 10:55:07;;;;;;;18.20;4.90;;;;;;;;;;4996852;28;20422;-70
2023/09/11 10:57:32;;;;;;;11.40;5.28;;;;;;;;;;4992929;28;20165;-69
2023/09/11 10:59:57;;;;;;;19.70;5.80;;;;;;;;;;4996772;28;20019;-69
2023/09/11 11:02:23;;;;;;;19.42;6.60;;;;;;;;;;4996401;28;20056;-69
2023/09/11 11:04:48;;;;;;;19.25;5.80;;;;;;;;;;4995140;28;20039;-70
2023/09/11 11:07:13;;;;;;;12.93;5.72;;;;;;;;;;4996886;28;20022;-69
2023/09/11 11:09:40;;;;;;;18.35;5.85;;;;;;;;;;4996518;28;20022;-70
2023/09/11 11:12:08;;;;;;;17.75;5.95;;;;;;;;;;5003522;28;20034;-70
2023/09/11 11:14:34;;;;;;;13.80;6.07;;;;;;;;;;5016080;28;20018;-69
2023/09/11 11:17:10;;;;;;;12.55;6.20;;;;;;;;;;5001155;28;20517;-70
2023/09/11 11:19:35;;;;;;;15.32;6.65;;;;;;;;;;4996613;28;20513;-70
2023/09/11 11:22:01;;;;;;;17.35;6.50;;;;;;;;;;4996238;28;20027;-69
2023/09/11 11:24:29;;;;;;;14.05;6.35;;;;;;;;;;4998090;28;20014;-69
2023/09/11 11:26:56;;;;;;;16.77;6.60;;;;;;;;;;4996635;28;20026;-70
2023/09/11 11:29:21;;;;;;;19.08;5.95;;;;;;;;;;4995245;28;20080;-69
2023/09/11 11:31:48;;;;;;;14.65;5.95;;;;;;;;;;4995648;28;20379;-70
2023/09/11 11:34:16;;;;;;;14.45;5.78;;;;;;;;;;4996032;28;20077;-70
2023/09/11 11:36:41;;;;;;;15.43;5.65;;;;;;;;;;4996125;28;20418;-69
2023/09/11 11:39:06;;;;;;;16.40;5.30;;;;;;;;;;4995556;28;20068;-70
2023/09/11 11:41:32;;;;;;;19.88;5.72;;;;;;;;;;5004380;28;20014;-70
2023/09/11 11:43:57;;;;;;;13.65;5.68;;;;;;;;;;5015507;28;20049;-70
2023/09/11 11:46:28;;;;;;;15.65;5.57;;;;;;;;;;5008472;28;20390;-70
2023/09/11 11:48:53;;;;;;;15.57;5.72;;;;;;;;;;4996069;28;20061;-70
2023/09/11 11:51:29;;;;;;;16.23;5.45;;;;;;;;;;4998206;28;20052;-70
2023/09/11 11:53:54;;;;;;;11.25;5.68;;;;;;;;;;4996011;28;20378;-71
2023/09/11 11:56:19;;;;;;;11.43;5.38;;;;;;;;;;4995697;28;20034;-71
2023/09/11 11:58:45;;;;;;;15.23;5.93;;;;;;;;;;4995538;28;20110;-70
2023/09/11 12:01:10;;;;;;;18.45;5.30;;;;;;;;;;4995211;28;20053;-71
2023/09/11 12:03:47;;;;;;;12.02;5.15;;;;;;;;;;4994342;28;20407;-69
2023/09/11 12:06:12;;;;;;;17.02;5.43;;;;;;;;;;4995233;28;20059;-70
2023/09/11 12:08:37;;;;;;;16.63;5.68;;;;;;;;;;4995608;28;20455;-69
2023/09/11 12:11:05;;;;;;;14.25;5.00;;;;;;;;;;4995708;28;20382;-68
2023/09/11 12:13:31;;;;;;;13.88;5.68;;;;;;;;;;4995201;28;20033;-70
2023/09/11 12:15:57;;;;;;;13.48;4.97;;;;;;;;;;5001009;28;20046;-71
2023/09/11 12:18:23;;;;;;;17.75;5.00;;;;;;;;;;4995199;28;20022;-71
2023/09/11 12:20:51;;;;;;;14.60;4.60;;;;;;;;;;4995487;28;20026;-71
2023/09/11 12:23:17;;;;;;;16.48;5.10;;;;;;;;;;4995351;28;20479;-71
2023/09/11 12:25:42;;;;;;;13.57;4.40;;;;;;;;;;4995422;28;20014;-69
2023/09/11 12:28:07;;;;;;;17.52;4.97;;;;;;;;;;4994968;28;20026;-68
2023/09/11 12:30:33;;;;;;;12.63;4.43;;;;;;;;;;4996512;28;20421;-71
2023/09/11 12:32:58;;;;;;;13.60;4.30;;;;;;;;;;4995770;28;20113;-69
2023/09/11 12:35:33;;;;;;;9.52;3.70;;;;;;;;;;4995177;28;20149;-69
2023/09/11 12:37:58;;;;;;;17.45;4.82;;;;;;;;;;4994784;28;20489;-71
2023/09/11 12:40:23;;;;;;;12.82;4.35;;;;;;;;;;4995130;28;20022;-71
2023/09/11 12:42:48;;;;;;;11.35;4.50;;;;;;;;;;4994745;28;20230;-70
2023/09/11 12:45:14;;;;;;;14.07;4.63;;;;;;;;;;4994839;28;20018;-69
2023/09/11 12:47:39;;;;;;;13.10;3.90;;;;;;;;;;4994294;28;20273;-63
2023/09/11 12:50:05;;;;;;;17.45;4.00;;;;;;;;;;4994914;28;20034;-64
2023/09/11 12:52:30;;;;;;;8.60;3.88;;;;;;;;;;4994509;28;20463;-64
2023/09/11 12:54:56;;;;;;;12.18;3.35;;;;;;;;;;4994926;28;20026;-64
2023/09/11 12:57:21;;;;;;;13.40;3.75;;;;;;;;;;4994559;28;20022;-65
2023/09/11 12:59:46;;;;;;;11.80;3.67;;;;;;;;;;4993863;28;20016;-63
2023/09/11 13:02:11;;;;;;;12.33;3.73;;;;;;;;;;4993342;28;20037;-64
2023/09/11 13:04:39;;;;;;;11.60;3.42;;;;;;;;;;4994207;28;20282;-64
2023/09/11 13:07:06;;;;;;;13.38;3.45;;;;;;;;;;4994087;28;20022;-64
2023/09/11 13:09:32;;;;;;;11.77;3.20;;;;;;;;;;4994512;28;20462;-65
2023/09/11 13:11:58;;;;;;;17.50;3.60;;;;;;;;;;4994512;28;20483;-63
2023/09/11 13:14:23;;;;;;;15.27;3.33;;;;;;;;;;4994104;28;20080;-64
2023/09/11 13:16:48;;;;;;;13.13;3.57;;;;;;;;;;4993765;28;20340;-64
2023/09/11 13:19:14;;;;;;;14.52;3.10;;;;;;;;;;4994118;28;20293;-64
2023/09/11 13:21:39;;;;;;;10.68;3.10;;;;;;;;;;4994934;28;20029;-65
2023/09/11 13:24:04;;;;;;;12.38;3.40;;;;;;;;;;5013658;28;20494;-64
2023/09/11 13:26:30;;;;;;;10.18;3.20;;;;;;;;;;5011424;28;20030;-64
2023/09/11 13:28:55;;;;;;;17.35;3.55;;;;;;;;;;4993038;28;20022;-64
2023/09/11 13:31:20;;;;;;;8.80;3.20;;;;;;;;;;4995539;28;20018;-64
2023/09/11 13:33:45;;;;;;;10.75;3.70;;;;;;;;;;4994439;28;20258;-64
2023/09/11 13:36:11;;;;;;;15.65;3.45;;;;;;;;;;4993870;28;20026;-64
2023/09/11 13:38:37;;;;;;;17.30;3.13;;;;;;;;;;4993876;28;20050;-65
2023/09/11 13:41:02;;;;;;;13.65;3.15;;;;;;;;;;4994058;28;20023;-65
2023/09/11 13:43:28;;;;;;;13.93;3.85;;;;;;;;;;4995093;28;20466;-64
2023/09/11 13:45:53;;;;;;;12.98;3.03;;;;;;;;;;4994047;28;20031;-65
2023/09/11 13:48:18;;;;;;;11.82;3.58;;;;;;;;;;4994253;28;20383;-64
2023/09/11 13:50:43;;;;;;;10.02;3.20;;;;;;;;;;4995430;28;20547;-65
2023/09/11 13:53:09;;;;;;;9.35;3.63;;;;;;;;;;4993931;28;20356;-64
2023/09/11 13:55:34;;;;;;;10.18;3.20;;;;;;;;;;4993265;28;20420;-65
2023/09/11 13:57:59;;;;;;;15.35;3.30;;;;;;;;;;4993651;28;20084;-65
2023/09/11 14:00:24;;;;;;;8.45;3.20;;;;;;;;;;4993579;28;20030;-67
2023/09/11 14:02:50;;;;;;;9.45;2.97;;;;;;;;;;4993329;28;20108;-65
2023/09/11 14:05:15;;;;;;;8.80;3.08;;;;;;;;;;4993464;28;20396;-65
2023/09/11 14:07:40;;;;;;;10.63;3.15;;;;;;;;;;4993494;28;20424;-66
2023/09/11 14:10:06;;;;;;;10.98;3.88;;;;;;;;;;4993576;28;20025;-66
2023/09/11 14:12:31;;;;;;;14.48;3.95;;;;;;;;;;5002806;28;20088;-67
2023/09/11 14:14:56;;;;;;;9.30;3.63;;;;;;;;;;4993772;28;20018;-66
2023/09/11 14:17:21;;;;;;;10.80;3.60;;;;;;;;;;4993346;28;20022;-66
2023/09/11 14:19:46;;;;;;;11.70;3.05;;;;;;;;;;4993511;28;20014;-66